createdAt,value
2017-11-16T00:00:20.668Z,93.60
2017-11-16T00:02:48.199Z,93.60
2017-11-16T00:05:15.731Z,93.60
2017-11-16T00:07:43.396Z,93.60
2017-11-16T00:10:12.039Z,93.60
2017-11-16T00:12:39.759Z,93.50
2017-11-16T00:15:07.552Z,93.50
2017-11-16T00:17:40.006Z,93.40
2017-11-16T00:20:07.817Z,93.40
2017-11-16T00:22:35.335Z,93.40
2017-11-16T00:25:09.232Z,93.40
2017-11-16T00:27:36.713Z,93.50
2017-11-16T00:30:04.987Z,93.40
2017-11-16T00:32:32.485Z,93.30
2017-11-16T00:34:59.977Z,93.40
2017-11-16T00:37:27.509Z,93.40
2017-11-16T00:39:55.092Z,93.30
2017-11-16T00:42:22.662Z,93.30
2017-11-16T00:44:50.157Z,93.40
2017-11-16T00:47:17.659Z,93.50
2017-11-16T00:49:45.396Z,93.50
2017-11-16T00:52:12.923Z,93.50
2017-11-16T00:54:40.409Z,93.60
2017-11-16T00:57:07.907Z,93.70
2017-11-16T00:59:35.411Z,93.80
2017-11-16T01:02:03.651Z,94.10
2017-11-16T01:04:31.149Z,94.10
2017-11-16T01:06:59.393Z,94.30
2017-11-16T01:09:26.904Z,94.20
2017-11-16T01:11:54.382Z,94.30
2017-11-16T01:14:21.846Z,94.40
2017-11-16T01:16:49.319Z,94.40
2017-11-16T01:19:16.786Z,94.50
2017-11-16T01:21:44.275Z,94.60
2017-11-16T01:24:11.811Z,94.70
2017-11-16T01:26:40.120Z,94.80
2017-11-16T01:29:07.610Z,94.80
2017-11-16T01:31:35.158Z,94.80
2017-11-16T01:34:02.678Z,94.80
2017-11-16T01:36:30.177Z,94.80
2017-11-16T01:38:57.675Z,94.80
2017-11-16T01:41:25.936Z,94.90
2017-11-16T01:43:53.427Z,94.90
2017-11-16T01:46:21.064Z,94.80
2017-11-16T01:48:49.345Z,94.80
2017-11-16T01:51:17.669Z,94.90
2017-11-16T01:53:45.152Z,94.90
2017-11-16T01:56:13.423Z,94.90
2017-11-16T01:58:40.911Z,94.90
2017-11-16T02:01:09.200Z,94.90
2017-11-16T02:03:36.780Z,94.80
2017-11-16T02:06:04.292Z,94.90
2017-11-16T02:08:32.568Z,95.20
2017-11-16T02:11:00.087Z,94.90
2017-11-16T02:13:27.604Z,94.90
2017-11-16T02:15:55.120Z,94.80
2017-11-16T02:18:22.652Z,94.80
2017-11-16T02:20:50.334Z,94.70
2017-11-16T02:23:17.879Z,94.80
2017-11-16T02:25:45.357Z,94.70
2017-11-16T02:28:12.857Z,94.70
2017-11-16T02:30:41.114Z,94.70
2017-11-16T02:33:09.381Z,94.60
2017-11-16T02:35:36.856Z,94.60
2017-11-16T02:38:04.305Z,94.70
2017-11-16T02:40:31.807Z,94.60
2017-11-16T02:42:59.276Z,94.70
2017-11-16T02:45:26.801Z,94.60
2017-11-16T02:47:55.048Z,94.60
2017-11-16T02:50:22.589Z,94.50
2017-11-16T02:52:50.143Z,94.50
2017-11-16T02:55:17.657Z,94.50
2017-11-16T02:57:45.166Z,94.40
2017-11-16T03:00:12.638Z,94.50
2017-11-16T03:02:40.122Z,94.40
2017-11-16T03:05:08.338Z,94.30
2017-11-16T03:07:35.803Z,94.30
2017-11-16T03:10:03.278Z,94.40
2017-11-16T03:12:30.807Z,94.40
2017-11-16T03:14:58.278Z,94.30
2017-11-16T03:17:25.791Z,94.30
2017-11-16T03:19:53.291Z,94.30
2017-11-16T03:22:20.760Z,94.40
2017-11-16T03:24:48.283Z,94.40
2017-11-16T03:27:15.786Z,94.40
2017-11-16T03:29:43.291Z,94.30
2017-11-16T03:32:10.759Z,94.20
2017-11-16T03:34:38.260Z,94.30
2017-11-16T03:37:05.770Z,94.30
2017-11-16T03:39:33.239Z,94.40
2017-11-16T03:42:00.716Z,94.40
2017-11-16T03:44:28.189Z,94.30
2017-11-16T03:46:55.650Z,94.20
2017-11-16T03:49:23.907Z,94.20
2017-11-16T03:51:51.373Z,94.20
2017-11-16T03:54:22.191Z,94.20
2017-11-16T03:56:49.664Z,94.20
2017-11-16T03:59:17.141Z,94.10
2017-11-16T04:01:45.381Z,94.10
2017-11-16T04:04:12.886Z,94.10
2017-11-16T04:06:40.370Z,94.20
2017-11-16T04:09:07.849Z,94.10
2017-11-16T04:11:35.337Z,94.10
2017-11-16T04:14:02.820Z,94.20
2017-11-16T04:16:30.312Z,94.20
2017-11-16T04:18:57.796Z,94.20
2017-11-16T04:21:25.265Z,94.10
2017-11-16T04:23:52.743Z,94.00
2017-11-16T04:26:21.003Z,94.20
2017-11-16T04:28:48.820Z,94.10
2017-11-16T04:31:16.345Z,94.20
2017-11-16T04:33:43.903Z,94.20
2017-11-16T04:36:11.420Z,94.20
2017-11-16T04:38:38.890Z,94.10
2017-11-16T04:41:06.404Z,94.10
2017-11-16T04:43:33.912Z,94.00
2017-11-16T04:46:02.219Z,94.00
2017-11-16T04:48:29.721Z,94.00
2017-11-16T04:50:57.634Z,94.00
2017-11-16T04:53:25.204Z,94.00
2017-11-16T04:55:52.739Z,94.00
2017-11-16T04:58:20.270Z,94.00
2017-11-16T05:00:47.795Z,93.90
2017-11-16T05:03:15.305Z,93.80
2017-11-16T05:05:42.805Z,93.80
2017-11-16T05:08:10.308Z,93.70
2017-11-16T05:10:37.816Z,93.70
2017-11-16T05:13:05.286Z,93.70
2017-11-16T05:15:32.803Z,93.80
2017-11-16T05:18:00.545Z,93.80
2017-11-16T05:20:28.104Z,93.60
2017-11-16T05:22:55.710Z,93.60
2017-11-16T05:25:23.198Z,93.70
2017-11-16T05:27:50.713Z,93.70
2017-11-16T05:30:18.750Z,93.70
2017-11-16T05:32:47.033Z,93.80
2017-11-16T05:35:14.516Z,93.70
2017-11-16T05:37:42.059Z,93.70
2017-11-16T05:40:09.583Z,93.80
2017-11-16T05:42:37.416Z,93.70
2017-11-16T05:45:04.871Z,93.70
2017-11-16T05:47:32.364Z,93.90
2017-11-16T05:50:00.800Z,94.10
2017-11-16T05:52:30.644Z,94.20
2017-11-16T05:54:58.139Z,94.10
2017-11-16T05:57:25.685Z,94.20
2017-11-16T05:59:53.189Z,94.80
2017-11-16T06:02:20.741Z,94.90
2017-11-16T06:04:49.138Z,95.40
2017-11-16T06:07:16.627Z,95.40
2017-11-16T06:09:44.110Z,95.60
2017-11-16T06:12:11.612Z,95.10
2017-11-16T06:14:39.080Z,95.00
2017-11-16T06:17:06.580Z,94.80
2017-11-16T06:19:34.060Z,94.70
2017-11-16T06:22:01.579Z,94.70
2017-11-16T06:24:29.077Z,94.60
2017-11-16T06:26:56.588Z,94.50
2017-11-16T06:29:24.081Z,94.40
2017-11-16T06:31:51.651Z,94.20
2017-11-16T06:34:19.168Z,94.20
2017-11-16T06:36:46.667Z,94.20
2017-11-16T06:39:14.139Z,94.30
2017-11-16T06:41:41.629Z,94.40
2017-11-16T06:44:09.246Z,94.40
2017-11-16T06:46:36.881Z,94.50
2017-11-16T06:49:04.478Z,94.50
2017-11-16T06:51:32.143Z,94.60
2017-11-16T06:54:00.497Z,94.60
2017-11-16T06:56:28.074Z,94.60
2017-11-16T06:58:55.782Z,94.60
2017-11-16T07:01:23.499Z,94.50
2017-11-16T07:06:44.990Z,94.50
2017-11-16T07:09:19.843Z,94.50
2017-11-16T07:11:47.954Z,94.50
2017-11-16T07:14:15.547Z,94.50
2017-11-16T07:16:46.727Z,94.50
2017-11-16T07:19:17.585Z,94.50
2017-11-16T07:21:45.388Z,94.40
2017-11-16T07:24:13.071Z,94.40
2017-11-16T07:26:41.401Z,94.40
2017-11-16T07:29:09.048Z,94.40
2017-11-16T07:31:37.912Z,94.40
2017-11-16T07:34:05.498Z,94.30
2017-11-16T07:36:33.399Z,94.30
2017-11-16T07:39:00.952Z,94.10
2017-11-16T07:41:28.479Z,94.10
2017-11-16T07:43:56.045Z,94.10
2017-11-16T07:46:23.650Z,94.10
2017-11-16T07:48:51.723Z,94.10
2017-11-16T07:51:19.338Z,93.80
2017-11-16T07:53:46.932Z,93.80
2017-11-16T07:56:16.889Z,93.80
2017-11-16T07:58:44.829Z,93.70
2017-11-16T08:01:13.312Z,93.50
2017-11-16T08:03:42.090Z,93.50
2017-11-16T08:09:12.651Z,93.50
2017-11-16T08:11:40.944Z,93.40
2017-11-16T08:14:08.835Z,93.30
2017-11-16T08:16:36.429Z,93.30
2017-11-16T08:19:06.477Z,93.30
2017-11-16T08:21:34.585Z,93.30
2017-11-16T08:24:02.366Z,93.20
2017-11-16T08:26:30.683Z,93.30
2017-11-16T08:28:58.563Z,93.20
2017-11-16T08:31:46.743Z,93.20
2017-11-16T08:34:14.970Z,93.20
2017-11-16T08:36:43.165Z,93.10
2017-11-16T08:39:10.941Z,93.10
2017-11-16T08:41:38.599Z,93.20
2017-11-16T08:44:07.779Z,93.20
2017-11-16T08:46:42.981Z,93.20
2017-11-16T08:49:21.235Z,93.10
2017-11-16T08:51:59.209Z,92.90
2017-11-16T08:54:28.970Z,92.80
2017-11-16T08:56:57.819Z,93.10
2017-11-16T08:59:28.896Z,92.80
2017-11-16T09:16:06.445Z,92.90
2017-11-16T09:18:39.894Z,92.80
2017-11-16T09:24:17.176Z,92.90
2017-11-16T09:26:56.756Z,92.80
2017-11-16T09:29:24.253Z,92.80
2017-11-16T09:31:51.757Z,92.70
2017-11-16T09:34:19.347Z,92.60
2017-11-16T09:36:47.009Z,92.60
2017-11-16T09:39:18.137Z,92.60
2017-11-16T09:41:46.162Z,92.50
2017-11-16T09:46:56.714Z,92.30
2017-11-16T09:49:24.845Z,92.20
2017-11-16T09:51:58.299Z,92.10
2017-11-16T09:54:44.644Z,92.10
2017-11-16T09:57:42.685Z,92.00
2017-11-16T10:00:18.759Z,92.00
2017-11-16T10:03:18.523Z,92.10
2017-11-16T10:05:53.654Z,92.20
2017-11-16T10:08:21.227Z,92.00
2017-11-16T10:11:10.085Z,92.10
2017-11-16T10:14:05.649Z,92.20
2017-11-16T10:16:33.606Z,92.20
2017-11-16T10:19:02.049Z,92.30
2017-11-16T10:21:29.547Z,92.30
2017-11-16T10:23:57.089Z,92.10
2017-11-16T10:26:25.465Z,91.90
2017-11-16T10:28:53.049Z,91.90
2017-11-16T10:31:20.720Z,91.80
2017-11-16T10:33:48.279Z,91.80
2017-11-16T10:36:15.884Z,92.00
2017-11-16T10:38:43.456Z,91.90
2017-11-16T10:41:10.983Z,91.70
2017-11-16T10:43:39.171Z,91.80
2017-11-16T10:46:06.785Z,91.70
2017-11-16T10:48:34.356Z,91.50
2017-11-16T10:51:01.963Z,91.50
2017-11-16T10:53:29.452Z,91.70
2017-11-16T10:55:56.986Z,91.50
2017-11-16T10:58:24.592Z,91.60
2017-11-16T11:00:52.190Z,91.50
2017-11-16T11:03:19.689Z,91.60
2017-11-16T11:05:47.219Z,91.30
2017-11-16T11:08:14.734Z,91.30
2017-11-16T11:10:42.231Z,91.50
2017-11-16T11:13:09.739Z,91.40
2017-11-16T11:15:37.326Z,91.30
2017-11-16T11:18:04.851Z,91.50
2017-11-16T11:20:32.443Z,91.40
2017-11-16T11:23:00.557Z,91.40
2017-11-16T11:25:28.142Z,91.30
2017-11-16T11:27:55.884Z,91.30
2017-11-16T11:30:23.468Z,91.20
2017-11-16T11:32:51.020Z,91.20
2017-11-16T11:35:19.569Z,91.40
2017-11-16T11:37:49.085Z,91.40
2017-11-16T11:40:18.063Z,91.40
2017-11-16T11:42:47.345Z,91.60
2017-11-16T11:45:20.245Z,91.50
2017-11-16T11:47:48.149Z,91.70
2017-11-16T11:50:16.434Z,91.50
2017-11-16T11:52:46.587Z,91.80
2017-11-16T11:55:14.197Z,91.70
2017-11-16T11:57:41.761Z,91.70
2017-11-16T12:00:10.044Z,92.00
2017-11-16T12:02:37.536Z,91.70
2017-11-16T12:05:05.075Z,91.70
2017-11-16T12:07:32.615Z,91.70
2017-11-16T12:10:00.165Z,91.70
2017-11-16T12:12:27.724Z,91.70
2017-11-16T12:14:55.248Z,91.70
2017-11-16T12:17:22.745Z,91.70
2017-11-16T12:19:51.002Z,91.50
2017-11-16T12:22:19.309Z,91.60
2017-11-16T12:24:46.839Z,91.60
2017-11-16T12:27:14.430Z,91.70
2017-11-16T12:29:41.976Z,91.60
2017-11-16T12:32:09.542Z,91.90
2017-11-16T12:34:38.659Z,92.00
2017-11-16T12:37:06.804Z,92.10
2017-11-16T12:39:34.358Z,92.20
2017-11-16T12:42:01.975Z,92.20
2017-11-16T12:44:29.598Z,92.30
2017-11-16T12:46:57.465Z,92.30
2017-11-16T12:49:25.368Z,92.30
2017-11-16T12:51:58.411Z,92.30
2017-11-16T12:54:26.958Z,92.40
2017-11-16T12:56:55.896Z,92.40
2017-11-16T12:59:23.588Z,92.30
2017-11-16T13:01:51.782Z,92.30
2017-11-16T13:07:35.383Z,92.20
2017-11-16T13:10:03.230Z,92.10
2017-11-16T13:36:53.456Z,92.50
2017-11-16T13:39:21.116Z,92.60
2017-11-16T13:41:48.652Z,92.50
2017-11-16T13:44:18.069Z,92.60
2017-11-16T13:46:53.409Z,92.50
2017-11-16T13:49:21.026Z,92.70
2017-11-16T13:54:53.599Z,92.80
2017-11-16T14:58:54.451Z,93.00
2017-11-16T15:01:22.113Z,92.90
2017-11-16T15:03:49.653Z,92.90
2017-11-16T15:06:17.978Z,92.90
2017-11-16T15:08:45.483Z,92.90
2017-11-16T15:11:12.969Z,92.80
2017-11-16T15:13:40.437Z,92.70
2017-11-16T15:16:07.982Z,92.80
2017-11-16T15:18:35.641Z,92.80
2017-11-16T15:21:03.223Z,92.80
2017-11-16T15:23:30.852Z,92.80
2017-11-16T15:25:58.402Z,92.70
2017-11-16T15:28:25.972Z,92.60
2017-11-16T15:30:53.438Z,92.50
2017-11-16T15:33:20.883Z,92.60
2017-11-16T15:35:48.432Z,92.50
2017-11-16T15:38:16.703Z,92.50
2017-11-16T15:40:44.211Z,92.50
2017-11-16T15:43:11.748Z,92.40
2017-11-16T15:45:39.211Z,92.30
2017-11-16T15:48:06.751Z,92.30
2017-11-16T15:50:34.251Z,92.20
2017-11-16T15:53:01.732Z,92.00
2017-11-16T15:55:29.222Z,92.00
2017-11-16T15:57:56.727Z,91.90
2017-11-16T16:00:24.244Z,91.90
2017-11-16T16:02:51.802Z,92.00
2017-11-16T16:05:19.313Z,92.00
2017-11-16T16:07:46.794Z,92.00
2017-11-16T16:10:14.272Z,92.00
2017-11-16T16:12:41.783Z,92.00
2017-11-16T16:15:09.279Z,92.00
2017-11-16T16:17:38.080Z,92.10
2017-11-16T16:20:05.642Z,92.00
2017-11-16T16:22:33.198Z,92.10
2017-11-16T16:25:01.086Z,92.10
2017-11-16T16:27:28.601Z,92.10
2017-11-16T16:29:56.173Z,92.30
2017-11-16T16:32:23.765Z,92.20
2017-11-16T16:34:51.306Z,92.30
2017-11-16T16:37:18.816Z,92.30
2017-11-16T16:39:46.369Z,92.40
2017-11-16T16:42:13.871Z,92.30
2017-11-16T16:44:41.543Z,92.30
2017-11-16T16:47:09.104Z,92.40
2017-11-16T16:49:36.641Z,92.40
2017-11-16T16:52:04.217Z,92.30
2017-11-16T16:54:31.882Z,92.40
2017-11-16T16:56:59.428Z,92.50
2017-11-16T16:59:27.990Z,92.40
2017-11-16T17:01:55.468Z,92.40
2017-11-16T17:04:23.125Z,92.40
2017-11-16T17:06:51.417Z,92.20
2017-11-16T17:09:19.001Z,92.20
2017-11-16T17:11:46.542Z,92.30
2017-11-16T17:14:14.035Z,92.30
2017-11-16T17:16:41.518Z,92.20
2017-11-16T17:19:09.010Z,92.20
2017-11-16T17:21:36.532Z,92.20
2017-11-16T17:24:04.057Z,92.30
2017-11-16T17:26:31.564Z,92.30
2017-11-16T17:28:59.843Z,92.50
2017-11-16T17:31:27.381Z,92.20
2017-11-16T17:33:54.922Z,92.20
2017-11-16T17:36:22.431Z,92.20
2017-11-16T17:38:50.032Z,92.20
2017-11-16T17:41:17.543Z,92.20
2017-11-16T17:43:46.843Z,92.30
2017-11-16T17:46:14.414Z,92.20
2017-11-16T17:48:41.870Z,92.30
2017-11-16T17:51:10.499Z,92.30
2017-11-16T17:53:38.010Z,92.30
2017-11-16T17:56:05.573Z,92.30
2017-11-16T17:58:33.121Z,92.20
2017-11-16T18:01:00.716Z,92.20
2017-11-16T18:03:28.287Z,92.20
2017-11-16T18:05:55.883Z,92.20
2017-11-16T18:08:24.801Z,92.30
2017-11-16T18:10:54.357Z,92.30
2017-11-16T18:13:24.628Z,92.30
2017-11-16T18:15:53.610Z,92.30
2017-11-16T18:18:22.855Z,92.30
2017-11-16T18:20:50.480Z,92.40
2017-11-16T18:23:20.096Z,92.50
2017-11-16T18:25:47.681Z,92.50
2017-11-16T18:28:15.706Z,92.30
2017-11-16T18:30:44.097Z,92.30
2017-11-16T18:33:15.287Z,92.40
2017-11-16T18:35:54.582Z,92.40
2017-11-16T18:38:25.258Z,92.40
2017-11-16T18:40:53.951Z,92.40
2017-11-16T18:43:24.596Z,92.40
2017-11-16T18:45:53.987Z,92.50
2017-11-16T18:48:24.618Z,92.70
2017-11-16T18:50:53.847Z,92.60
2017-11-16T18:53:23.278Z,92.60
2017-11-16T18:55:51.133Z,92.50
2017-11-16T18:58:18.835Z,92.40
2017-11-16T19:00:46.346Z,92.30
2017-11-16T19:03:14.163Z,92.50
2017-11-16T19:05:42.653Z,92.50
2017-11-16T19:08:13.717Z,92.30
2017-11-16T19:10:43.562Z,92.10
2017-11-16T19:13:11.377Z,92.20
2017-11-16T19:15:39.069Z,92.20
2017-11-16T19:18:06.627Z,92.40
2017-11-16T19:20:34.191Z,92.40
2017-11-16T19:23:02.465Z,92.40
2017-11-16T19:25:30.022Z,92.40
2017-11-16T19:27:57.585Z,92.70
2017-11-16T19:30:25.140Z,92.80
2017-11-16T19:32:52.958Z,92.80
2017-11-16T19:35:20.545Z,93.00
2017-11-16T19:37:48.418Z,92.90
2017-11-16T19:40:16.031Z,93.00
2017-11-16T19:42:43.757Z,92.90
2017-11-16T19:45:12.275Z,92.80
2017-11-16T19:47:40.072Z,92.90
2017-11-16T19:50:07.637Z,92.90
2017-11-16T19:52:37.664Z,92.90
2017-11-16T19:55:05.587Z,92.90
2017-11-16T19:57:33.274Z,93.10
2017-11-16T20:00:06.574Z,93.20
2017-11-16T20:02:36.275Z,93.20
2017-11-16T20:05:04.764Z,93.30
2017-11-16T20:07:32.545Z,93.30
2017-11-16T20:10:00.477Z,93.40
2017-11-16T20:12:28.031Z,93.40
2017-11-16T20:14:56.432Z,93.40
2017-11-16T20:17:24.084Z,93.60
2017-11-16T20:19:51.791Z,93.60
2017-11-16T20:22:19.704Z,93.40
2017-11-16T20:24:47.356Z,93.50
2017-11-16T20:27:15.790Z,93.50
2017-11-16T20:29:43.449Z,93.50
2017-11-16T20:32:12.294Z,93.70
2017-11-16T20:34:40.544Z,94.20
2017-11-16T20:37:29.126Z,93.90
2017-11-16T20:40:15.328Z,93.80
2017-11-16T20:42:44.118Z,93.70
2017-11-16T20:45:17.358Z,93.70
2017-11-16T20:47:50.596Z,93.70
2017-11-16T20:50:23.925Z,93.90
2017-11-16T20:52:56.423Z,93.80
2017-11-16T20:58:47.811Z,93.80
2017-11-16T21:04:20.555Z,93.80
2017-11-16T21:06:48.111Z,93.70
2017-11-16T21:09:15.720Z,93.80
2017-11-16T21:11:43.280Z,93.90
2017-11-16T21:14:12.558Z,93.90
2017-11-16T21:16:40.094Z,93.90
2017-11-16T21:19:10.977Z,93.80
2017-11-16T21:21:39.176Z,93.90
2017-11-16T21:24:06.913Z,93.80
2017-11-16T21:26:34.492Z,93.70
2017-11-16T21:29:03.259Z,93.70
2017-11-16T21:31:30.800Z,93.60
2017-11-16T21:33:58.428Z,93.70
2017-11-16T21:36:26.661Z,93.70
2017-11-16T21:38:54.263Z,93.70
2017-11-16T21:41:21.982Z,93.70
2017-11-16T21:43:49.694Z,93.70
2017-11-16T21:46:32.685Z,93.70
2017-11-16T21:49:02.393Z,94.00
2017-11-16T21:54:20.604Z,94.20
2017-11-16T21:56:48.131Z,94.20
2017-11-16T21:59:15.696Z,94.20
2017-11-16T22:01:52.791Z,94.40
2017-11-16T22:04:20.380Z,94.50
2017-11-16T22:06:51.004Z,94.60
2017-11-16T22:09:18.504Z,94.80
2017-11-16T22:11:45.963Z,95.00
2017-11-16T22:14:13.453Z,95.00
2017-11-16T22:16:41.253Z,95.10
2017-11-16T22:19:08.738Z,95.10
2017-11-16T22:21:36.226Z,95.30
2017-11-16T22:24:03.700Z,95.50
2017-11-16T22:26:31.185Z,96.20
2017-11-16T22:28:58.675Z,96.40
2017-11-16T22:31:26.151Z,96.50
2017-11-16T22:33:53.672Z,96.50
2017-11-16T22:36:21.172Z,96.60
2017-11-16T22:38:49.085Z,96.60
2017-11-16T22:41:16.591Z,96.70
2017-11-16T22:43:44.088Z,96.60
2017-11-16T22:46:11.607Z,96.70
2017-11-16T22:48:39.068Z,96.50
2017-11-16T22:51:07.221Z,96.40
2017-11-16T22:53:34.965Z,96.00
2017-11-16T22:56:02.439Z,96.10
2017-11-16T22:58:29.920Z,95.70
2017-11-16T23:00:57.378Z,95.90
2017-11-16T23:03:24.975Z,95.90
2017-11-16T23:05:52.439Z,95.80
2017-11-16T23:08:19.948Z,95.70
2017-11-16T23:10:47.488Z,95.80
2017-11-16T23:13:15.019Z,95.90
2017-11-16T23:15:42.631Z,95.80
2017-11-16T23:18:10.090Z,95.70
2017-11-16T23:20:37.538Z,95.60
2017-11-16T23:23:05.089Z,95.70
2017-11-16T23:25:33.741Z,95.70
2017-11-16T23:28:01.346Z,95.60
2017-11-16T23:30:28.859Z,95.60
2017-11-16T23:32:56.355Z,95.60
2017-11-16T23:35:23.882Z,95.60
2017-11-16T23:37:51.937Z,95.50
2017-11-16T23:40:19.432Z,95.60
2017-11-16T23:42:46.940Z,95.90
2017-11-16T23:45:14.453Z,95.80
2017-11-16T23:47:42.712Z,95.60
2017-11-16T23:50:10.229Z,95.60
2017-11-16T23:52:37.723Z,95.50
2017-11-16T23:55:05.219Z,95.50
2017-11-16T23:57:32.675Z,95.60
